LIRZ

Details ICAO LIRZ (PEG)
Name PERUGIA
Region Italy
Timezone Europe/Rome (UTC+1.0)
Plans Departing 63
Arriving 73
Stats Elevation 693 ft / 211 m (AMSL)
Location 43.096192° 12.513325°
Runways 1
Magnetic Variation 3.105° E
Sunrise 2017-12-17 06:37:21 UTC / 2017-12-17 07:37:21 Local
Sunset 2017-12-17 15:37:29 UTC / 2017-12-17 16:37:29 Local
Advertisement - Login to hide

Runways

ID Width Length Bearing (true) Bearing (mag) Surface Threshold Offset Overrun Length
01 154 ft / 47 m 5,783 ft / 1,763 m 14.26° 11.15° Asphalt 0 ft / 0 m 328 ft / 100 m
19 154 ft / 47 m 5,783 ft / 1,763 m 194.27° 191.16° Asphalt 85 ft / 26 m 0 ft / 0 m

Approach Navaids

Runway Type Ident Frequency Range Bearing (true) Bearing (mag) Slope Elevation
01 Localiser IPE 110.95 MHz 18 nm / 33 km 14.25° 11.15° - 693 ft / 211 m (AMSL)
01 Glidescope IPE 110.95 MHz 10 nm / 19 km 14.26° 11.16° 3.40° 667 ft / 203 m (AMSL)
01 DME IPE 110.95 MHz 18 nm / 33 km - - - 667 ft / 203 m (AMSL)

Map

Weather


0- 5 10 15 20 25 30 35+ Temperature / ° C

Clouds and Precipitation
Forecast for 2017-12-17 18:00 UTC. Updated an hour ago

Ground ~20,000 ft ~40,000 ft Winds

METAR

LIRZ 171550Z 01006KT 9999 FEW040 05/M01 Q1018

TAF

TAF TAF LIRZ 171100Z 1712/1812 04012KT 9999 SCT030 BECMG 1720/1722 VRB05KT

Frequencies

Tower 118.10 MHz INFO
Warning: Do not use this data for real-world aviation or navigation. No guarantee of current accuracy is given.